Time,TemperatureF,DewpointF,PressureIn,WindDirection,WindDirectionDegrees,WindSpeedMPH,WindSpeedGustMPH,Humidity,HourlyPrecipIn,Conditions,Clouds,dailyrainin,SoftwareType,DateUTC
2013-06-16 00:00:00,54.6,52.0,29.84,West,274,0.0,0.0,91,0.06,,,0.01,weatherlink.com 1.10,2013-06-16 04:00:00,
2013-06-16 00:15:00,54.5,52.0,29.83,SE,129,1.0,2.0,91,0.13,,,0.08,weatherlink.com 1.10,2013-06-16 04:15:00,
2013-06-16 00:30:00,54.5,52.0,29.82,ESE,119,1.0,2.0,92,0.19,,,0.15,weatherlink.com 1.10,2013-06-16 04:30:00,
2013-06-16 00:45:00,54.5,52.0,29.82,East,95,1.0,2.0,92,0.26,,,0.22,weatherlink.com 1.10,2013-06-16 04:45:00,
2013-06-16 01:00:00,54.4,52.0,29.80,East,88,1.0,2.0,92,0.29,,,0.30,weatherlink.com 1.10,2013-06-16 05:00:00,
2013-06-16 01:15:00,54.5,52.0,29.80,ESE,113,2.0,4.0,92,0.25,,,0.33,weatherlink.com 1.10,2013-06-16 05:15:00,
2013-06-16 01:30:00,54.5,52.0,29.80,SE,132,0.0,4.0,92,0.23,,,0.38,weatherlink.com 1.10,2013-06-16 05:30:00,
2013-06-16 01:45:00,54.4,52.0,29.79,ESE,105,2.0,2.0,92,0.22,,,0.45,weatherlink.com 1.10,2013-06-16 05:45:00,
2013-06-16 02:00:00,54.3,52.0,29.79,SE,134,3.0,3.0,92,0.21,,,0.51,weatherlink.com 1.10,2013-06-16 06:00:00,
2013-06-16 02:15:00,54.2,52.0,29.77,ENE,77,1.0,3.0,92,0.22,,,0.56,weatherlink.com 1.10,2013-06-16 06:15:00,
2013-06-16 02:31:00,54.1,52.0,29.76,SE,131,3.0,5.0,92,0.22,,,0.60,weatherlink.com 1.10,2013-06-16 06:31:00,
2013-06-16 02:46:00,53.8,52.0,29.75,ESE,105,2.0,5.0,92,0.17,,,0.62,weatherlink.com 1.10,2013-06-16 06:46:00,
2013-06-16 03:01:00,53.8,52.0,29.74,ESE,108,2.0,5.0,93,0.12,,,0.63,weatherlink.com 1.10,2013-06-16 07:01:00,
2013-06-16 03:16:00,54.0,52.0,29.74,South,172,0.0,3.0,93,0.08,,,0.64,weatherlink.com 1.10,2013-06-16 07:16:00,
2013-06-16 03:31:00,54.3,52.0,29.74,NNW,345,0.0,2.0,93,0.04,,,0.64,weatherlink.com 1.10,2013-06-16 07:31:00,
2013-06-16 03:46:00,54.4,53.0,29.75,NE,55,0.0,0.0,93,0.02,,,0.64,weatherlink.com 1.10,2013-06-16 07:46:00,
2013-06-16 04:01:00,54.4,53.0,29.74,NE,56,0.0,0.0,93,0.01,,,0.64,weatherlink.com 1.10,2013-06-16 08:01:00,
2013-06-16 04:16:00,54.4,53.0,29.74,NE,51,1.0,1.0,93,0.00,,,0.64,weatherlink.com 1.10,2013-06-16 08:16:00,
2013-06-16 04:31:00,54.4,53.0,29.74,West,277,0.0,1.0,93,0.00,,,0.64,weatherlink.com 1.10,2013-06-16 08:31:00,
2013-06-16 04:46:00,54.5,53.0,29.74,West,278,0.0,1.0,93,0.00,,,0.64,weatherlink.com 1.10,2013-06-16 08:46:00,
2013-06-16 05:01:00,54.6,53.0,29.74,West,278,0.0,0.0,93,0.00,,,0.64,weatherlink.com 1.10,2013-06-16 09:01:00,
2013-06-16 05:16:00,54.6,53.0,29.73,West,278,0.0,0.0,93,0.00,,,0.64,weatherlink.com 1.10,2013-06-16 09:16:00,
2013-06-16 05:31:00,54.7,53.0,29.73,West,278,0.0,0.0,93,0.00,,,0.64,weatherlink.com 1.10,2013-06-16 09:31:00,
2013-06-16 05:46:00,54.8,53.0,29.73,West,278,0.0,0.0,93,0.00,,,0.64,weatherlink.com 1.10,2013-06-16 09:46:00,
2013-06-16 06:01:00,54.9,53.0,29.73,West,278,0.0,0.0,93,0.00,,,0.64,weatherlink.com 1.10,2013-06-16 10:01:00,
2013-06-16 06:16:00,55.1,53.0,29.72,West,275,0.0,2.0,93,0.00,,,0.64,weatherlink.com 1.10,2013-06-16 10:16:00,
2013-06-16 06:31:00,55.2,53.0,29.73,SSW,198,0.0,2.0,93,0.00,,,0.64,weatherlink.com 1.10,2013-06-16 10:31:00,
2013-06-16 06:46:00,55.0,53.0,29.73,West,266,0.0,3.0,93,0.00,,,0.64,weatherlink.com 1.10,2013-06-16 10:46:00,
2013-06-16 07:01:00,54.7,53.0,29.73,SSE,162,0.0,3.0,93,0.00,,,0.64,weatherlink.com 1.10,2013-06-16 11:01:00,
2013-06-16 07:16:00,54.5,53.0,29.73,SSW,197,2.0,3.0,93,0.00,,,0.64,weatherlink.com 1.10,2013-06-16 11:16:00,
2013-06-16 07:31:00,54.7,53.0,29.73,WSW,240,0.0,3.0,93,0.00,,,0.64,weatherlink.com 1.10,2013-06-16 11:31:00,
2013-06-16 07:46:00,54.8,53.0,29.74,WNW,284,1.0,2.0,93,0.00,,,0.64,weatherlink.com 1.10,2013-06-16 11:46:00,
2013-06-16 08:01:00,55.2,53.0,29.73,West,262,0.0,1.0,93,0.00,,,0.64,weatherlink.com 1.10,2013-06-16 12:01:00,
2013-06-16 08:16:00,56.1,54.0,29.74,West,276,0.0,2.0,93,0.00,,,0.64,weatherlink.com 1.10,2013-06-16 12:16:00,
2013-06-16 08:31:00,56.6,55.0,29.73,West,260,0.0,4.0,93,0.00,,,0.64,weatherlink.com 1.10,2013-06-16 12:31:00,
2013-06-16 08:46:00,57.3,55.0,29.74,West,263,1.0,3.0,93,0.00,,,0.64,weatherlink.com 1.10,2013-06-16 12:46:00,
2013-06-16 09:01:00,57.4,55.0,29.74,SW,218,0.0,2.0,93,0.00,,,0.64,weatherlink.com 1.10,2013-06-16 13:01:00,
2013-06-16 09:16:00,57.6,56.0,29.74,West,278,2.0,3.0,93,0.00,,,0.64,weatherlink.com 1.10,2013-06-16 13:16:00,
2013-06-16 09:31:00,57.9,56.0,29.74,SW,218,1.0,3.0,93,0.00,,,0.64,weatherlink.com 1.10,2013-06-16 13:31:00,
2013-06-16 09:46:00,58.9,57.0,29.74,West,281,3.0,4.0,93,0.00,,,0.64,weatherlink.com 1.10,2013-06-16 13:46:00,
2013-06-16 10:01:00,59.7,58.0,29.75,WSW,253,3.0,5.0,93,0.00,,,0.64,weatherlink.com 1.10,2013-06-16 14:01:00,
2013-06-16 10:16:00,61.0,59.0,29.74,West,281,3.0,4.0,92,0.00,,,0.64,weatherlink.com 1.10,2013-06-16 14:16:00,
2013-06-16 10:31:00,62.4,60.0,29.73,WNW,297,2.0,6.0,92,0.00,,,0.64,weatherlink.com 1.10,2013-06-16 14:31:00,
2013-06-16 10:46:00,64.3,62.0,29.73,WNW,287,4.0,6.0,91,0.00,,,0.64,weatherlink.com 1.10,2013-06-16 14:46:00,
2013-06-16 11:01:00,64.5,62.0,29.73,WSW,248,4.0,10.0,90,0.00,,,0.64,weatherlink.com 1.10,2013-06-16 15:01:00,
2013-06-16 11:16:00,65.0,62.0,29.73,SW,224,1.0,5.0,90,0.00,,,0.64,weatherlink.com 1.10,2013-06-16 15:16:00,
2013-06-16 11:32:00,64.9,62.0,29.72,West,271,1.0,7.0,91,0.00,,,0.64,weatherlink.com 1.10,2013-06-16 15:32:00,
2013-06-16 11:47:00,65.6,63.0,29.72,WSW,246,4.0,8.0,90,0.00,,,0.64,weatherlink.com 1.10,2013-06-16 15:47:00,
2013-06-16 12:02:00,67.2,63.0,29.71,West,274,4.0,7.0,86,0.00,,,0.64,weatherlink.com 1.10,2013-06-16 16:02:00,
2013-06-16 12:17:00,66.8,62.0,29.70,SSW,205,4.0,11.0,85,0.00,,,0.64,weatherlink.com 1.10,2013-06-16 16:17:00,
2013-06-16 12:32:00,67.6,62.0,29.70,SSW,204,5.0,10.0,83,0.00,,,0.64,weatherlink.com 1.10,2013-06-16 16:32:00,
2013-06-16 12:47:00,67.6,63.0,29.70,SW,233,3.0,12.0,84,0.00,,,0.64,weatherlink.com 1.10,2013-06-16 16:47:00,
2013-06-16 13:02:00,67.3,63.0,29.70,South,176,6.0,12.0,85,0.00,,,0.64,weatherlink.com 1.10,2013-06-16 17:02:00,
2013-06-16 13:17:00,67.4,63.0,29.70,WSW,253,4.0,11.0,86,0.00,,,0.64,weatherlink.com 1.10,2013-06-16 17:17:00,
2013-06-16 13:32:00,68.7,64.0,29.70,West,262,8.0,13.0,84,0.00,,,0.64,weatherlink.com 1.10,2013-06-16 17:32:00,
2013-06-16 13:47:00,69.0,64.0,29.70,WNW,297,11.0,12.0,84,0.00,,,0.64,weatherlink.com 1.10,2013-06-16 17:47:00,
2013-06-16 14:02:00,70.6,65.0,29.70,WSW,249,3.0,11.0,82,0.00,,,0.64,weatherlink.com 1.10,2013-06-16 18:02:00,
2013-06-16 14:17:00,69.3,63.0,29.71,WNW,300,4.0,12.0,81,0.00,,,0.64,weatherlink.com 1.10,2013-06-16 18:17:00,
2013-06-16 14:32:00,67.4,63.0,29.72,West,278,5.0,12.0,85,0.00,,,0.64,weatherlink.com 1.10,2013-06-16 18:32:00,
2013-06-16 14:47:00,67.1,62.0,29.72,West,278,8.0,13.0,83,0.00,,,0.64,weatherlink.com 1.10,2013-06-16 18:47:00,
2013-06-16 15:02:00,59.4,56.0,29.73,SW,225,1.0,24.0,88,0.05,,,0.69,weatherlink.com 1.10,2013-06-16 19:02:00,
2013-06-16 15:17:00,61.1,59.0,29.72,West,274,2.0,3.0,92,0.13,,,0.77,weatherlink.com 1.10,2013-06-16 19:17:00,
2013-06-16 15:32:00,63.4,61.0,29.72,West,280,3.0,7.0,91,0.19,,,0.83,weatherlink.com 1.10,2013-06-16 19:32:00,
2013-06-16 15:47:00,65.0,62.0,29.73,WNW,300,2.0,7.0,91,0.22,,,0.86,weatherlink.com 1.10,2013-06-16 19:47:00,
2013-06-16 16:02:00,65.9,63.0,29.73,WNW,302,5.0,9.0,90,0.17,,,0.86,weatherlink.com 1.10,2013-06-16 20:02:00,
2013-06-16 16:17:00,65.6,62.0,29.73,NW,315,6.0,8.0,89,0.09,,,0.86,weatherlink.com 1.10,2013-06-16 20:17:00,
2013-06-16 16:32:00,66.5,63.0,29.74,NW,321,5.0,8.0,88,0.03,,,0.86,weatherlink.com 1.10,2013-06-16 20:32:00,
2013-06-16 16:47:00,67.3,63.0,29.74,NW,313,4.0,11.0,86,0.00,,,0.86,weatherlink.com 1.10,2013-06-16 20:47:00,
2013-06-16 17:02:00,67.7,63.0,29.74,NW,304,4.0,9.0,86,0.00,,,0.86,weatherlink.com 1.10,2013-06-16 21:02:00,
2013-06-16 17:17:00,68.8,64.0,29.74,WNW,284,2.0,7.0,85,0.00,,,0.86,weatherlink.com 1.10,2013-06-16 21:17:00,
2013-06-16 17:32:00,68.8,64.0,29.73,NNW,344,2.0,7.0,85,0.00,,,0.86,weatherlink.com 1.10,2013-06-16 21:32:00,
2013-06-16 17:47:00,69.7,64.0,29.73,SW,232,6.0,8.0,83,0.00,,,0.86,weatherlink.com 1.10,2013-06-16 21:47:00,
2013-06-16 18:02:00,69.7,64.0,29.74,West,267,1.0,6.0,83,0.00,,,0.86,weatherlink.com 1.10,2013-06-16 22:02:00,
2013-06-16 18:17:00,70.3,64.0,29.74,WSW,243,3.0,6.0,80,0.00,,,0.86,weatherlink.com 1.10,2013-06-16 22:17:00,
2013-06-16 18:32:00,70.9,63.0,29.74,WNW,288,1.0,7.0,77,0.00,,,0.86,weatherlink.com 1.10,2013-06-16 22:32:00,
2013-06-16 18:47:00,71.1,63.0,29.73,West,276,3.0,6.0,75,0.00,,,0.86,weatherlink.com 1.10,2013-06-16 22:47:00,
2013-06-16 19:02:00,70.4,62.0,29.74,SW,224,2.0,6.0,75,0.00,,,0.86,weatherlink.com 1.10,2013-06-16 23:02:00,
2013-06-16 19:17:00,71.3,62.0,29.73,West,262,4.0,6.0,73,0.00,,,0.86,weatherlink.com 1.10,2013-06-16 23:17:00,
2013-06-16 19:32:00,69.6,60.0,29.75,NNW,344,5.0,7.0,72,0.00,,,0.86,weatherlink.com 1.10,2013-06-16 23:32:00,
2013-06-16 19:47:00,67.0,61.0,29.75,North,349,1.0,4.0,80,0.00,,,0.86,weatherlink.com 1.10,2013-06-16 23:47:00,
2013-06-16 20:02:00,67.5,60.0,29.75,North,359,1.0,4.0,78,0.00,,,0.86,weatherlink.com 1.10,2013-06-17 00:02:00,
2013-06-16 20:17:00,66.7,58.0,29.76,NW,318,2.0,5.0,73,0.00,,,0.86,weatherlink.com 1.10,2013-06-17 00:17:00,
2013-06-16 20:32:00,65.9,57.0,29.76,NNE,23,1.0,5.0,72,0.00,,,0.86,weatherlink.com 1.10,2013-06-17 00:32:00,
2013-06-16 20:47:00,65.1,56.0,29.77,WNW,288,4.0,5.0,73,0.00,,,0.86,weatherlink.com 1.10,2013-06-17 00:47:00,
2013-06-16 21:02:00,63.0,55.0,29.78,NNE,23,2.0,4.0,76,0.00,,,0.86,weatherlink.com 1.10,2013-06-17 01:02:00,
2013-06-16 21:17:00,60.5,54.0,29.77,NW,320,1.0,10.0,79,0.00,,,0.86,weatherlink.com 1.10,2013-06-17 01:17:00,
2013-06-16 21:32:00,59.3,54.0,29.78,NNW,339,5.0,5.0,81,0.00,,,0.86,weatherlink.com 1.10,2013-06-17 01:32:00,
2013-06-16 21:47:00,58.3,53.0,29.79,NNE,28,4.0,7.0,82,0.00,,,0.86,weatherlink.com 1.10,2013-06-17 01:47:00,
2013-06-16 22:02:00,57.9,52.0,29.80,WNW,294,0.0,7.0,82,0.00,,,0.86,weatherlink.com 1.10,2013-06-17 02:02:00,
2013-06-16 22:17:00,57.3,52.0,29.80,WNW,296,0.0,4.0,82,0.00,,,0.86,weatherlink.com 1.10,2013-06-17 02:17:00,
2013-06-16 22:32:00,56.2,52.0,29.80,NW,322,0.0,2.0,85,0.00,,,0.86,weatherlink.com 1.10,2013-06-17 02:32:00,
2013-06-16 22:47:00,55.0,52.0,29.80,West,266,0.0,1.0,88,0.00,,,0.86,weatherlink.com 1.10,2013-06-17 02:47:00,
2013-06-16 23:02:00,54.9,51.0,29.80,NW,315,0.0,1.0,87,0.00,,,0.86,weatherlink.com 1.10,2013-06-17 03:02:00,
2013-06-16 23:17:00,54.5,51.0,29.79,West,262,1.0,3.0,88,0.00,,,0.86,weatherlink.com 1.10,2013-06-17 03:17:00,
2013-06-16 23:32:00,53.6,51.0,29.78,West,269,0.0,0.0,89,0.00,,,0.86,weatherlink.com 1.10,2013-06-17 03:32:00,
2013-06-16 23:48:00,52.2,50.0,29.78,West,269,0.0,0.0,91,0.00,,,0.86,weatherlink.com 1.10,2013-06-17 03:48:00,